CheckWX is a tool to help pilots better visualize weather data.  It is not intended as a substitute for an official pre-flight weather briefing.

15:26:15 UTC

KHHG METAR
Huntington Municipal Airport
Huntington, Indiana, USA
Current

11 mins ago

KHHG 261515Z AUTO 25006KT 10SM SCT075 BKN090 BKN120 20/18 A3006 RMK AO2 T01960182
Observed
May-26 @ 15:15 UTC
Wind
  • 250° at 6 KTS
Visibility
10 SM
Flight Rules
VFR
Cloud Levels
  • Scattered at 7,500' AGL
  • Broken at 9,000' AGL
  • Broken at 12,000' AGL
Temperature
20°C / 68°F
Dewpoint
18°C / 64°F
Humidity
88%
Altimeter
30.06" Hg
Pressure
1017.92 hPa
Previous

31 mins ago

KHHG 261455Z AUTO 24004KT 10SM -RA SCT080 BKN100 OVC120 20/18 A3006 RMK AO2 T01970181
Observed
May-26 @ 14:55 UTC
Wind
  • 240° at 4 KTS
Visibility
10 SM
Flight Rules
VFR
Conditions
Light Rain
Cloud Levels
  • Scattered at 8,000' AGL
  • Broken at 10,000' AGL
  • Overcast at 12,000' AGL
Temperature
20°C / 68°F
Dewpoint
18°C / 64°F
Humidity
88%
Altimeter
30.06" Hg
Pressure
1017.92 hPa
Previous

51 mins ago

KHHG 261435Z AUTO 25005KT 10SM SCT120 20/18 A3006 RMK AO2 T01950181
Observed
May-26 @ 14:35 UTC
Wind
  • 250° at 5 KTS
Visibility
10 SM
Flight Rules
VFR
Cloud Levels
  • Scattered at 12,000' AGL
Temperature
20°C / 68°F
Dewpoint
18°C / 64°F
Humidity
88%
Altimeter
30.06" Hg
Pressure
1017.92 hPa